createdAt,value
2023-01-20T00:02:23.052Z,100443.09
2023-01-20T00:05:00.553Z,100440.47
2023-01-20T00:07:36.292Z,100441.22
2023-01-20T00:10:12.581Z,100448.22
2023-01-20T00:12:45.161Z,100458.78
2023-01-20T00:15:19.552Z,100456.00
2023-01-20T00:17:54.236Z,100461.91
2023-01-20T00:20:32.327Z,100459.94
2023-01-20T00:23:06.205Z,100467.69
2023-01-20T00:25:40.988Z,100471.81
2023-01-20T00:28:15.278Z,100467.25
2023-01-20T00:30:51.635Z,100462.63
2023-01-20T00:33:26.208Z,100459.97
2023-01-20T00:36:03.023Z,100469.47
2023-01-20T00:38:33.151Z,100470.19
2023-01-20T00:41:07.747Z,100464.72
2023-01-20T00:43:42.282Z,100460.09
2023-01-20T00:46:17.210Z,100465.25
2023-01-20T00:48:51.225Z,100459.78
2023-01-20T00:51:29.538Z,100449.97
2023-01-20T00:53:59.036Z,100457.75
2023-01-20T00:56:27.125Z,100452.28
2023-01-20T00:58:56.341Z,100452.28
2023-01-20T01:01:25.048Z,100457.44
2023-01-20T01:03:54.255Z,100459.13
2023-01-20T01:06:24.031Z,100459.91
2023-01-20T01:08:53.158Z,100455.38
2023-01-20T01:11:21.464Z,100449.16
2023-01-20T01:13:49.669Z,100455.19
2023-01-20T01:16:17.939Z,100451.63
2023-01-20T01:18:46.355Z,100456.75
2023-01-20T01:21:15.866Z,100452.31
2023-01-20T01:23:45.419Z,100451.44
2023-01-20T01:26:13.655Z,100445.22
2023-01-20T01:28:41.937Z,100451.28
2023-01-20T01:31:10.333Z,100457.34
2023-01-20T01:33:39.528Z,100459.06
2023-01-20T01:36:08.649Z,100461.72
2023-01-20T01:38:37.058Z,100458.13
2023-01-20T01:41:07.078Z,100463.31
2023-01-20T01:43:36.693Z,100463.22
2023-01-20T01:46:05.432Z,100461.38
2023-01-20T01:48:35.605Z,100465.75
2023-01-20T01:51:06.419Z,100471.78
2023-01-20T01:53:38.319Z,100474.34
2023-01-20T01:56:08.600Z,100478.63
2023-01-20T01:58:38.640Z,100479.47
2023-01-20T02:01:07.085Z,100478.63
2023-01-20T02:03:39.910Z,100479.38
2023-01-20T02:06:08.883Z,100480.16
2023-01-20T02:08:37.381Z,100485.28
2023-01-20T02:11:05.725Z,100486.03
2023-01-20T02:13:35.446Z,100490.41
2023-01-20T02:16:10.401Z,100488.53
2023-01-20T02:18:45.544Z,100483.06
2023-01-20T02:21:31.590Z,100485.53
2023-01-20T02:24:09.320Z,100496.88
2023-01-20T02:26:45.223Z,100488.84
2023-01-20T02:29:25.951Z,100492.19
2023-01-20T02:32:02.383Z,100497.31
2023-01-20T02:34:34.072Z,100498.09
2023-01-20T02:37:06.556Z,100498.94
2023-01-20T02:39:38.294Z,100504.25
2023-01-20T02:42:10.650Z,100512.00
2023-01-20T02:44:41.787Z,100506.63
2023-01-20T02:47:14.132Z,100511.75
2023-01-20T02:49:45.895Z,100516.13
2023-01-20T02:52:16.697Z,100516.03
2023-01-20T02:54:49.804Z,100508.00
2023-01-20T02:57:20.069Z,100523.88
2023-01-20T02:59:53.099Z,100514.16
2023-01-20T03:02:25.759Z,100527.31
2023-01-20T03:04:57.217Z,100517.47
2023-01-20T03:07:27.023Z,100512.19
2023-01-20T03:09:57.735Z,100516.47
2023-01-20T03:12:28.251Z,100528.84
2023-01-20T03:14:56.373Z,100521.84
2023-01-20T03:17:26.059Z,100528.06
2023-01-20T03:19:54.196Z,100524.50
2023-01-20T03:22:22.776Z,100527.13
2023-01-20T03:24:51.095Z,100525.41
2023-01-20T03:27:19.236Z,100527.13
2023-01-20T03:29:47.256Z,100524.50
2023-01-20T03:32:16.181Z,100529.78
2023-01-20T03:34:45.787Z,100532.44
2023-01-20T03:37:14.536Z,100520.13
2023-01-20T03:39:42.976Z,100519.19
2023-01-20T03:42:13.970Z,100515.63
2023-01-20T03:44:49.865Z,100519.00
2023-01-20T03:47:21.657Z,100519.09
2023-01-20T03:49:55.980Z,100514.66
2023-01-20T03:52:47.787Z,100518.25
2023-01-20T03:55:17.759Z,100513.97
2023-01-20T03:57:50.853Z,100514.06
2023-01-20T04:00:21.773Z,100518.59
2023-01-20T04:02:51.593Z,100518.59
2023-01-20T04:05:21.285Z,100515.00
2023-01-20T04:07:50.472Z,100516.72
2023-01-20T04:10:19.533Z,100510.47
2023-01-20T04:12:47.651Z,100511.25
2023-01-20T04:15:16.519Z,100505.94
2023-01-20T04:17:45.283Z,100508.50
2023-01-20T04:20:14.648Z,100510.13
2023-01-20T04:22:49.380Z,100509.16
2023-01-20T04:25:21.958Z,100510.88
2023-01-20T04:27:50.372Z,100513.44
2023-01-20T04:30:18.880Z,100514.31
2023-01-20T04:32:47.147Z,100516.19
2023-01-20T04:35:16.645Z,100511.69
2023-01-20T04:37:46.523Z,100502.84
2023-01-20T04:40:14.926Z,100504.66
2023-01-20T04:42:43.189Z,100503.88
2023-01-20T04:45:16.211Z,100504.06
2023-01-20T04:47:44.742Z,100497.81
2023-01-20T04:50:13.962Z,100494.44
2023-01-20T04:52:42.346Z,100498.84
2023-01-20T04:55:13.985Z,100491.78
2023-01-20T04:57:42.190Z,100490.06
2023-01-20T05:00:11.974Z,100492.78
2023-01-20T05:02:40.090Z,100496.38
2023-01-20T05:05:10.391Z,100506.13
2023-01-20T05:07:38.502Z,100504.41
2023-01-20T05:10:07.435Z,100504.41
2023-01-20T05:12:37.909Z,100501.06
2023-01-20T05:15:06.482Z,100509.97
2023-01-20T05:17:34.877Z,100513.63
2023-01-20T05:20:02.926Z,100518.00
2023-01-20T05:22:38.927Z,100518.94
2023-01-20T05:25:17.229Z,100514.66
2023-01-20T05:27:48.730Z,100512.09
2023-01-20T05:30:17.091Z,100507.50
2023-01-20T05:32:49.966Z,100504.78
2023-01-20T05:35:18.463Z,100498.50
2023-01-20T05:37:46.487Z,100510.81
2023-01-20T05:40:15.041Z,100513.47
2023-01-20T05:42:43.272Z,100506.28
2023-01-20T05:45:13.285Z,100503.56
2023-01-20T05:47:41.424Z,100502.50
2023-01-20T05:50:10.365Z,100505.03
2023-01-20T05:52:38.609Z,100494.34
2023-01-20T05:55:07.040Z,100491.69
2023-01-20T05:57:35.102Z,100493.28
2023-01-20T06:00:03.301Z,100495.00
2023-01-20T06:02:34.553Z,100501.13
2023-01-20T06:05:02.903Z,100493.97
2023-01-20T06:07:31.573Z,100493.97
2023-01-20T06:09:59.739Z,100494.81
2023-01-20T06:12:27.937Z,100501.00
2023-01-20T06:14:56.025Z,100496.53
2023-01-20T06:17:24.296Z,100496.53
2023-01-20T06:19:53.826Z,100499.09
2023-01-20T06:22:22.051Z,100507.13
2023-01-20T06:24:50.400Z,100501.84
2023-01-20T06:27:18.730Z,100506.28
2023-01-20T06:29:47.829Z,100509.78
2023-01-20T06:32:16.072Z,100509.03
2023-01-20T06:34:44.467Z,100504.75
2023-01-20T06:37:14.000Z,100502.00
2023-01-20T06:39:42.124Z,100489.69
2023-01-20T06:42:11.620Z,100498.44
2023-01-20T06:44:39.814Z,100503.72
2023-01-20T06:47:08.197Z,100502.00
2023-01-20T06:49:36.269Z,100502.00
2023-01-20T06:52:04.620Z,100502.00
2023-01-20T06:54:34.533Z,100502.84
2023-01-20T06:57:02.608Z,100496.72
2023-01-20T06:59:30.990Z,100495.09
2023-01-20T07:01:59.171Z,100503.97
2023-01-20T07:04:27.286Z,100504.06
2023-01-20T07:06:55.746Z,100501.50
2023-01-20T07:09:24.135Z,100513.03
2023-01-20T07:11:53.576Z,100512.09
2023-01-20T07:14:21.797Z,100517.38
2023-01-20T07:16:50.055Z,100521.75
2023-01-20T07:19:18.417Z,100516.28
2023-01-20T07:21:46.521Z,100515.25
2023-01-20T07:24:14.747Z,100512.44
2023-01-20T07:26:42.998Z,100503.53
2023-01-20T07:29:12.559Z,100501.75
2023-01-20T07:31:41.191Z,100499.88
2023-01-20T07:34:09.518Z,100505.94
2023-01-20T07:36:37.581Z,100507.56
2023-01-20T07:39:05.865Z,100500.34
2023-01-20T07:41:34.182Z,100508.13
2023-01-20T07:44:02.739Z,100511.66
2023-01-20T07:46:32.841Z,100509.84
2023-01-20T07:49:00.935Z,100512.31
2023-01-20T07:51:29.137Z,100518.47
2023-01-20T07:53:57.376Z,100520.94
2023-01-20T07:56:26.542Z,100527.97
2023-01-20T07:58:55.105Z,100528.72
2023-01-20T08:01:24.794Z,100527.78
2023-01-20T08:03:54.659Z,100533.94
2023-01-20T08:06:23.337Z,100537.50
2023-01-20T08:08:52.120Z,100537.50
2023-01-20T08:11:21.129Z,100545.47
2023-01-20T08:13:49.400Z,100546.41
2023-01-20T08:16:19.109Z,100537.50
2023-01-20T08:18:47.899Z,100535.97
2023-01-20T08:21:21.598Z,100542.56
2023-01-20T08:23:50.105Z,100544.63
2023-01-20T08:26:19.521Z,100543.09
2023-01-20T08:28:47.860Z,100552.91
2023-01-20T08:31:17.224Z,100549.59
2023-01-20T08:33:46.356Z,100547.97
2023-01-20T08:36:16.287Z,100547.13
2023-01-20T08:38:45.926Z,100549.06
2023-01-20T08:41:15.090Z,100550.88
2023-01-20T08:43:43.253Z,100561.66
2023-01-20T08:46:13.573Z,100565.94
2023-01-20T08:48:42.267Z,100564.03
2023-01-20T08:51:12.344Z,100563.94
2023-01-20T08:53:41.070Z,100569.16
2023-01-20T08:56:11.449Z,100576.00
2023-01-20T08:58:40.758Z,100574.28
2023-01-20T09:01:10.143Z,100583.66
2023-01-20T09:03:38.535Z,100590.44
2023-01-20T09:06:07.606Z,100583.34
2023-01-20T09:08:37.375Z,100581.38
2023-01-20T09:11:06.895Z,100585.56
2023-01-20T09:13:37.142Z,100588.81
2023-01-20T09:16:05.752Z,100589.41
2023-01-20T09:18:34.766Z,100586.56
2023-01-20T09:21:07.080Z,100593.41
2023-01-20T09:23:35.927Z,100594.94
2023-01-20T09:26:05.431Z,100608.81
2023-01-20T09:28:33.969Z,100607.59
2023-01-20T09:31:05.281Z,100611.69
2023-01-20T09:33:33.504Z,100616.63
2023-01-20T09:36:01.762Z,100609.28
2023-01-20T09:38:47.360Z,100617.06
2023-01-20T09:41:35.942Z,100615.94
2023-01-20T09:44:09.288Z,100615.66
2023-01-20T09:46:45.023Z,100618.97
2023-01-20T09:49:37.454Z,100626.50
2023-01-20T09:52:27.944Z,100621.66
2023-01-20T09:54:59.394Z,100627.28
2023-01-20T09:57:31.316Z,100626.84
2023-01-20T10:00:03.872Z,100639.44
2023-01-20T10:02:37.900Z,100644.97
2023-01-20T10:05:11.796Z,100644.25
2023-01-20T10:07:44.170Z,100654.19
2023-01-20T10:10:15.715Z,100659.91
2023-01-20T10:12:47.040Z,100656.88
2023-01-20T10:15:18.394Z,100656.59
2023-01-20T10:17:50.974Z,100663.22
2023-01-20T10:20:25.398Z,100663.72
2023-01-20T10:22:57.805Z,100667.69
2023-01-20T10:25:28.587Z,100669.19
2023-01-20T10:27:58.179Z,100682.09
2023-01-20T10:30:27.985Z,100684.38
2023-01-20T10:33:00.957Z,100684.94
2023-01-20T10:35:30.155Z,100683.03
2023-01-20T10:37:59.186Z,100693.38
2023-01-20T10:40:35.335Z,100691.38
2023-01-20T10:43:10.438Z,100698.22
2023-01-20T10:45:44.343Z,100705.06
2023-01-20T10:48:17.312Z,100708.44
2023-01-20T10:50:49.369Z,100710.16
2023-01-20T10:53:35.817Z,100712.53
2023-01-20T10:56:09.325Z,100711.28
2023-01-20T10:58:39.292Z,100711.66
2023-01-20T11:01:09.479Z,100708.59
2023-01-20T11:03:41.919Z,100713.44
2023-01-20T11:06:17.665Z,100705.03
2023-01-20T11:08:46.086Z,100717.09
2023-01-20T11:11:16.314Z,100712.28
2023-01-20T11:13:47.087Z,100722.47
2023-01-20T11:16:18.457Z,100715.78
2023-01-20T11:18:56.809Z,100716.41
2023-01-20T11:21:25.762Z,100716.03
2023-01-20T11:23:55.867Z,100722.84
2023-01-20T11:26:28.028Z,100715.59
2023-01-20T11:28:57.185Z,100712.72
2023-01-20T11:31:36.054Z,100708.06
2023-01-20T11:34:20.847Z,100710.41
2023-01-20T11:36:49.093Z,100713.69
2023-01-20T11:39:27.234Z,100706.47
2023-01-20T11:42:11.503Z,100708.81
2023-01-20T11:44:43.068Z,100700.00
2023-01-20T11:47:23.038Z,100701.81
2023-01-20T11:52:47.467Z,100713.56
2023-01-20T11:55:16.540Z,100722.50
2023-01-20T11:57:45.920Z,100717.50
2023-01-20T12:00:31.162Z,100714.16
2023-01-20T12:03:00.814Z,100717.03
2023-01-20T12:05:31.971Z,100719.34
2023-01-20T12:08:03.321Z,100726.94
2023-01-20T12:10:33.459Z,100731.00
2023-01-20T12:13:05.180Z,100721.78
2023-01-20T12:15:34.632Z,100723.13
2023-01-20T12:18:09.539Z,100719.19
2023-01-20T12:20:54.046Z,100722.38
2023-01-20T12:23:32.737Z,100717.44
2023-01-20T12:26:03.029Z,100729.63
2023-01-20T12:28:35.731Z,100721.25
2023-01-20T12:31:05.844Z,100721.44
2023-01-20T12:33:35.269Z,100719.25
2023-01-20T12:36:25.078Z,100717.94
2023-01-20T12:39:09.321Z,100727.56
2023-01-20T12:41:48.115Z,100726.13
2023-01-20T12:44:20.880Z,100732.00
2023-01-20T12:46:51.498Z,100731.53
2023-01-20T12:49:28.553Z,100726.81
2023-01-20T12:52:05.151Z,100724.53
2023-01-20T12:54:48.256Z,100715.19
2023-01-20T12:57:22.695Z,100719.97
2023-01-20T12:59:57.068Z,100716.19
2023-01-20T13:02:43.223Z,100718.41
2023-01-20T13:05:30.299Z,100714.53
2023-01-20T13:08:08.108Z,100711.38
2023-01-20T13:10:59.281Z,100711.75
2023-01-20T13:13:56.407Z,100720.03
2023-01-20T13:16:32.586Z,100721.50
2023-01-20T13:19:07.903Z,100721.03
2023-01-20T13:21:36.306Z,100720.66
2023-01-20T13:24:06.281Z,100723.94
2023-01-20T13:26:37.592Z,100732.72
2023-01-20T13:29:05.697Z,100723.72
2023-01-20T13:31:43.426Z,100719.81
2023-01-20T13:34:36.696Z,100718.72
2023-01-20T13:37:20.001Z,100717.63
2023-01-20T13:39:48.429Z,100730.03
2023-01-20T13:42:37.443Z,100721.03
2023-01-20T13:45:19.263Z,100720.81
2023-01-20T13:47:53.393Z,100716.28
2023-01-20T13:50:26.109Z,100731.50
2023-01-20T13:53:18.287Z,100731.84
2023-01-20T13:55:56.729Z,100730.03
2023-01-20T13:58:43.359Z,100731.00
2023-01-20T14:01:15.078Z,100727.97
2023-01-20T14:03:44.027Z,100730.75
2023-01-20T14:06:36.294Z,100732.22
2023-01-20T14:09:08.565Z,100747.19
2023-01-20T14:11:57.667Z,100739.03
2023-01-20T14:14:27.484Z,100742.44
2023-01-20T14:16:57.476Z,100744.97
2023-01-20T14:19:29.810Z,100744.84
2023-01-20T14:21:59.153Z,100738.78
2023-01-20T14:24:28.300Z,100745.34
2023-01-20T14:27:07.244Z,100739.50
2023-01-20T14:29:35.726Z,100747.91
2023-01-20T14:32:09.703Z,100759.94
2023-01-20T14:34:37.813Z,100762.25
2023-01-20T14:37:20.830Z,100766.25
2023-01-20T14:39:49.636Z,100771.34
2023-01-20T14:42:19.927Z,100774.16
2023-01-20T14:44:48.188Z,100785.00
2023-01-20T14:47:17.751Z,100782.44
2023-01-20T14:49:47.641Z,100791.56
2023-01-20T14:52:21.640Z,100789.63
2023-01-20T14:54:50.516Z,100791.06
2023-01-20T14:57:23.842Z,100796.19
2023-01-20T15:00:03.612Z,100788.59
2023-01-20T15:02:35.193Z,100787.63
2023-01-20T15:05:04.095Z,100792.72
2023-01-20T15:07:32.279Z,100787.34
2023-01-20T15:10:03.228Z,100794.78
2023-01-20T15:12:40.515Z,100793.78
2023-01-20T15:15:18.887Z,100805.94
2023-01-20T15:18:05.851Z,100805.31
2023-01-20T15:20:39.637Z,100803.63
2023-01-20T15:23:13.439Z,100813.13
2023-01-20T15:25:41.634Z,100814.09
2023-01-20T15:28:20.091Z,100818.09
2023-01-20T15:30:50.385Z,100814.44
2023-01-20T15:33:18.590Z,100810.75
2023-01-20T15:35:51.762Z,100813.31
2023-01-20T15:38:20.258Z,100804.94
2023-01-20T15:40:48.596Z,100813.31
2023-01-20T15:43:17.340Z,100815.41
2023-01-20T15:45:45.487Z,100824.41
2023-01-20T15:48:16.182Z,100813.81
2023-01-20T15:50:44.485Z,100815.53
2023-01-20T15:53:14.185Z,100820.91
2023-01-20T15:55:46.490Z,100818.34
2023-01-20T15:58:25.473Z,100822.59
2023-01-20T16:00:53.851Z,100822.84
2023-01-20T16:03:22.229Z,100831.88
2023-01-20T16:05:50.849Z,100830.16
2023-01-20T16:08:21.854Z,100839.94
2023-01-20T16:10:50.666Z,100838.94
2023-01-20T16:13:18.810Z,100834.69
2023-01-20T16:15:47.074Z,100846.78
2023-01-20T16:18:16.235Z,100851.00
2023-01-20T16:20:44.887Z,100853.81
2023-01-20T16:23:13.044Z,100856.03
2023-01-20T16:25:43.509Z,100855.53
2023-01-20T16:28:13.695Z,100864.78
2023-01-20T16:30:42.524Z,100862.88
2023-01-20T16:33:17.919Z,100866.50
2023-01-20T16:35:46.378Z,100870.19
2023-01-20T16:38:15.972Z,100872.13
2023-01-20T16:40:50.672Z,100865.75
2023-01-20T16:43:19.305Z,100875.06
2023-01-20T16:45:50.625Z,100878.59
2023-01-20T16:48:18.828Z,100875.53
2023-01-20T16:50:46.994Z,100872.84
2023-01-20T16:53:15.512Z,100866.03
2023-01-20T16:55:45.052Z,100877.75
2023-01-20T16:58:15.568Z,100877.88
2023-01-20T17:00:44.295Z,100883.13
2023-01-20T17:03:12.533Z,100881.41
2023-01-20T17:05:40.629Z,100886.66
2023-01-20T17:08:08.748Z,100890.22
2023-01-20T17:10:36.924Z,100896.53
2023-01-20T17:13:05.032Z,100897.50
2023-01-20T17:15:35.062Z,100903.47
2023-01-20T17:18:03.166Z,100911.75
2023-01-20T17:20:32.613Z,100907.38
2023-01-20T17:23:00.921Z,100911.16
2023-01-20T17:25:29.132Z,100913.06
2023-01-20T17:27:57.731Z,100919.91
2023-01-20T17:30:26.693Z,100928.19
2023-01-20T17:32:56.485Z,100935.00
2023-01-20T17:35:24.783Z,100939.78
2023-01-20T17:37:52.869Z,100938.19
2023-01-20T17:40:21.235Z,100943.53
2023-01-20T17:42:49.403Z,100948.41
2023-01-20T17:45:17.918Z,100952.53
2023-01-20T17:47:46.166Z,100957.19
2023-01-20T17:50:16.309Z,100960.00
2023-01-20T17:52:44.948Z,100964.22
2023-01-20T17:55:13.224Z,100969.00
2023-01-20T17:57:41.493Z,100975.94
2023-01-20T18:00:10.276Z,100977.28
2023-01-20T18:02:38.721Z,100979.59
2023-01-20T18:05:07.183Z,100984.69
2023-01-20T18:07:37.055Z,100983.22
2023-01-20T18:10:05.646Z,100985.31
2023-01-20T18:12:33.846Z,100985.19
2023-01-20T18:15:02.276Z,101003.19
2023-01-20T18:17:34.548Z,101003.09
2023-01-20T18:20:02.794Z,101013.56
2023-01-20T18:22:30.828Z,101013.34
2023-01-20T18:25:00.334Z,101007.97
2023-01-20T18:27:28.683Z,101003.47
2023-01-20T18:29:56.918Z,101014.81
2023-01-20T18:32:25.941Z,101013.94
2023-01-20T18:34:54.002Z,101011.63
2023-01-20T18:37:22.086Z,101015.78
2023-01-20T18:39:50.275Z,101017.38
2023-01-20T18:42:20.070Z,101022.59
2023-01-20T18:44:48.232Z,101020.78
2023-01-20T18:47:16.450Z,101026.38
2023-01-20T18:49:44.479Z,101035.00
2023-01-20T18:52:12.559Z,101038.31
2023-01-20T18:54:40.710Z,101039.91
2023-01-20T18:57:09.265Z,101045.84
2023-01-20T18:59:39.336Z,101052.94
2023-01-20T19:02:07.756Z,101050.63
2023-01-20T19:04:36.629Z,101060.25
2023-01-20T19:07:06.016Z,101062.06
2023-01-20T19:09:34.044Z,101065.81
2023-01-20T19:12:02.351Z,101071.69
2023-01-20T19:14:30.480Z,101078.13
2023-01-20T19:17:00.134Z,101086.16
2023-01-20T19:19:28.271Z,101089.84
2023-01-20T19:21:56.348Z,101092.41
2023-01-20T19:24:29.018Z,101090.56
2023-01-20T19:27:00.474Z,101092.41
2023-01-20T19:29:29.547Z,101093.13
2023-01-20T19:31:59.446Z,101093.84
2023-01-20T19:34:28.247Z,101102.88
2023-01-20T19:36:56.890Z,101108.00
2023-01-20T19:39:25.031Z,101111.88
2023-01-20T19:41:53.320Z,101121.53
2023-01-20T19:44:21.729Z,101114.09
2023-01-20T19:46:49.965Z,101115.28
2023-01-20T19:49:19.727Z,101123.84
2023-01-20T19:51:48.047Z,101127.28
2023-01-20T19:54:16.718Z,101132.84
2023-01-20T19:56:44.916Z,101128.25
2023-01-20T19:59:13.402Z,101139.69
2023-01-20T20:01:41.670Z,101133.38
2023-01-20T20:04:10.585Z,101143.13
2023-01-20T20:06:43.914Z,101138.59
2023-01-20T20:09:14.545Z,101150.16
2023-01-20T20:11:43.353Z,101144.22
2023-01-20T20:14:13.191Z,101133.72
2023-01-20T20:16:41.288Z,101145.03
2023-01-20T20:19:11.242Z,101145.28
2023-01-20T20:21:40.909Z,101137.25
2023-01-20T20:24:09.225Z,101136.53
2023-01-20T20:26:37.862Z,101150.78
2023-01-20T20:29:08.839Z,101152.38
2023-01-20T20:31:37.844Z,101170.16
2023-01-20T20:34:06.857Z,101170.38
2023-01-20T20:36:35.293Z,101182.56
2023-01-20T20:39:05.964Z,101186.84
2023-01-20T20:41:35.444Z,101195.84
2023-01-20T20:44:04.197Z,101190.50
2023-01-20T20:46:32.625Z,101190.38
2023-01-20T20:49:02.145Z,101198.41
2023-01-20T20:51:31.859Z,101205.25
2023-01-20T20:54:01.272Z,101219.41
2023-01-20T20:56:32.623Z,101219.66
2023-01-20T20:59:03.159Z,101224.78
2023-01-20T21:01:32.749Z,101218.66
2023-01-20T21:04:01.085Z,101217.69
2023-01-20T21:06:29.807Z,101213.19
2023-01-20T21:08:58.778Z,101213.81
2023-01-20T21:11:27.084Z,101215.53
2023-01-20T21:13:56.899Z,101214.53
2023-01-20T21:16:25.378Z,101220.91
2023-01-20T21:18:56.240Z,101229.91
2023-01-20T21:21:24.563Z,101235.28
2023-01-20T21:23:54.074Z,101238.69
2023-01-20T21:26:22.676Z,101237.47
2023-01-20T21:28:50.970Z,101237.34
2023-01-20T21:31:22.877Z,101234.78
2023-01-20T21:33:53.664Z,101234.78
2023-01-20T21:36:21.982Z,101230.50
2023-01-20T21:38:50.380Z,101230.41
2023-01-20T21:41:18.859Z,101232.59
2023-01-20T21:44:05.554Z,101241.25
2023-01-20T21:46:38.440Z,101231.63
2023-01-20T21:49:24.918Z,101238.91
2023-01-20T21:52:10.537Z,101237.19
2023-01-20T21:54:39.862Z,101237.94
2023-01-20T21:57:08.253Z,101239.16
2023-01-20T21:59:36.354Z,101253.63
2023-01-20T22:02:05.998Z,101257.63
2023-01-20T22:04:34.509Z,101259.13
2023-01-20T22:07:02.688Z,101262.03
2023-01-20T22:09:31.002Z,101268.59
2023-01-20T22:11:59.261Z,101269.78
2023-01-20T22:14:27.441Z,101266.47
2023-01-20T22:16:55.605Z,101270.34
2023-01-20T22:19:25.479Z,101272.91
2023-01-20T22:21:53.567Z,101279.13
2023-01-20T22:24:21.614Z,101277.44
2023-01-20T22:26:50.589Z,101280.19
2023-01-20T22:29:19.185Z,101277.13
2023-01-20T22:31:48.025Z,101295.03
2023-01-20T22:34:16.356Z,101295.03
2023-01-20T22:36:46.867Z,101302.09
2023-01-20T22:39:15.702Z,101302.09
2023-01-20T22:41:43.975Z,101307.13
2023-01-20T22:44:12.061Z,101317.72
2023-01-20T22:46:40.236Z,101316.03
2023-01-20T22:49:08.337Z,101312.16
2023-01-20T22:51:36.501Z,101321.88
2023-01-20T22:54:07.264Z,101318.97
2023-01-20T22:56:35.460Z,101320.47
2023-01-20T22:59:03.508Z,101321.97
2023-01-20T23:01:33.492Z,101319.03
2023-01-20T23:04:02.713Z,101331.50
2023-01-20T23:06:32.901Z,101329.44
2023-01-20T23:09:01.410Z,101333.94
2023-01-20T23:11:31.751Z,101328.81
2023-01-20T23:14:00.390Z,101336.50
2023-01-20T23:16:28.662Z,101335.44
2023-01-20T23:18:57.385Z,101340.91
2023-01-20T23:21:26.084Z,101331.16
2023-01-20T23:23:55.356Z,101346.38
2023-01-20T23:26:24.474Z,101344.44
2023-01-20T23:28:55.286Z,101348.94
2023-01-20T23:31:24.092Z,101349.06
2023-01-20T23:33:52.418Z,101354.44
2023-01-20T23:36:22.058Z,101350.44
2023-01-20T23:38:50.293Z,101351.28
2023-01-20T23:41:18.649Z,101342.28
2023-01-20T23:43:46.774Z,101353.72
2023-01-20T23:46:16.704Z,101344.97
2023-01-20T23:48:45.849Z,101353.00
2023-01-20T23:51:14.433Z,101347.41
2023-01-20T23:53:42.993Z,101359.22
2023-01-20T23:56:17.253Z,101351.06
2023-01-20T23:58:45.999Z,101344.00
